EFOUEFKK

Guest
Details From EFOU - Oulu
To EFKK - Kruunupyy
Flight Number -
Tags generated
Created
Modified
Stats Distance 93 nm / 172 km
Max Altitude 8,800 ft / 2,682 m
Waypoints 5
Social Downloads 0
Likes 0
Share VATSIM

Download

Looking for another format? Having issues loading an existing format? Contact us
Advertisement - Login to hide

Notes

Basic altitude profile: - Ascent Rate: 2500ft/min - Ascent Speed: 250kts - Cruise Altitude: 35000ft - Cruise Speed: 420kts - Descent Rate: 1500ft/min - Descent Speed: 250kts Options: - Use NATs: yes - Use PACOTS: yes - Use low airways: yes - Use high airways: yes

Route

EFOU AKOVU T89 OKAMO EFKK

ID Type Via Altitude Latitude Longitude Leg Dist Tot Dist Heading (true) Name
O EFOU APT - 0 ft / 0 m 64.93006˚ 25.35456˚ - 0 nm - Oulu
AKOVU FIX - 7,700 ft / 2,347 m 64.65333˚ 24.80306˚ 21 nm 21 nm 221° / 220° -
NOSLO FIX T89 (AWY-LO) 8,800 ft / 2,682 m 64.27361˚ 24.06806˚ 29 nm 51 nm 220° / 220° -
OKAMO FIX T89 (AWY-LO) 6,500 ft / 1,981 m 64.00889˚ 23.57194˚ 20 nm 72 nm 219° / 219° -
O EFKK APT - 0 ft / 0 m 63.72064˚ 23.13971˚ 20 nm 92 nm 214° / 213° Kruunupyy

Altitude Profile

Advertisement - Login to hide

EFOU

Details ICAO EFOU (OUL)
Name Oulu
Region Finland
Timezone Europe/Helsinki (UTC+2.0)
Stats Elevation 47 ft / 14 m (AMSL)
Location 64.930059° 25.354560°
Runways 1
Magnetic Variation 10.661° E

METAR

EFOU 140820Z AUTO 17006KT 8000 -SN OVC006/// 00/00 Q0991

Decode

TAF

TAF EFOU 140527Z 1406/1506 18009KT 8000 -SN FEW006 BKN030 TEMPO 1406/1413 1300 SNRA BKN006 TEMPO 1413/1506 BKN013

Decode

Departure Runways

ID Width Length Bearing (true) Bearing (mag) Surface Threshold Offset Overrun Length
12 197 ft / 60 m 8,180 ft / 2,493 m 121.01° 110.35° Asphalt 0 ft / 0 m 200 ft / 61 m
30 197 ft / 60 m 8,180 ft / 2,493 m 301.05° 290.39° Asphalt 0 ft / 0 m 200 ft / 61 m

EFKK

Details ICAO EFKK (KOK)
Name Kruunupyy
Region Finland
Timezone Europe/Helsinki (UTC+2.0)
Stats Elevation 83 ft / 25 m (AMSL)
Location 63.720639° 23.139713°
Runways 2
Magnetic Variation 9.249° E

METAR

EFKK 140820Z 16011KT 9999 -RA FEW006 SCT010 BKN013 OVC034 01/M00 Q0991

Decode

TAF

Not found

Destination Runways

ID Width Length Bearing (true) Bearing (mag) Surface Threshold Offset Overrun Length
01 197 ft / 60 m 8,183 ft / 2,494 m 10.63° 1.38° Asphalt 0 ft / 0 m 200 ft / 61 m
11 66 ft / 20 m 2,288 ft / 697 m 113.03° 103.78° Asphalt 0 ft / 0 m 0 ft / 0 m
19 197 ft / 60 m 8,183 ft / 2,494 m 190.63° 181.38° Asphalt 0 ft / 0 m 200 ft / 61 m
29 66 ft / 20 m 2,288 ft / 697 m 293.04° 283.79° Asphalt 0 ft / 0 m 0 ft / 0 m

Approach Navaids

Runway Type Ident Frequency Range Bearing (true) Bearing (mag) Slope Elevation
19 Localiser KK 109.30 MHz 18 nm / 33 km 190.62° 181.38° - 83 ft / 25 m (AMSL)
19 Glidescope KK 109.30 MHz 10 nm / 19 km 190.63° 181.38° 3.00° 83 ft / 25 m (AMSL)
19 DME KK 109.30 MHz 18 nm / 33 km - - - 83 ft / 25 m (AMSL)